Time;durP1;ratioP1;P1;durP2;ratioP2;P2;SDS_P1;SDS_P2;PMS_P1;PMS_P2;Temp;Humidity;BMP_temperature;BMP_pressure;BME280_temperature;BME280_humidity;BME280_pressure;Samples;Min_cycle;Max_cycle;Signal;HPM_P1;HPM_P2
2022/05/10 00:00:11;;;;;;;;;17.50;16.75;;;;;23.68;38.85;101332.38;6275203;22;45666;-78
2022/05/10 00:02:37;;;;;;;;;15.75;15.75;;;;;23.65;38.81;101330.88;6303669;22;45444;-80
2022/05/10 00:05:03;;;;;;;;;16.75;15.00;;;;;23.64;39.14;101326.56;6306516;22;46483;-80
2022/05/10 00:07:32;;;;;;;;;16.50;15.50;;;;;23.64;39.28;101328.41;6308526;22;46358;-80
2022/05/10 00:09:57;;;;;;;;;13.75;13.50;;;;;23.59;38.90;101314.72;6306500;22;45628;-80
2022/05/10 00:12:22;;;;;;;;;14.50;14.50;;;;;23.52;39.43;101305.72;6306895;22;45430;-80
2022/05/10 00:18:14;;;;;;;;;20.75;18.50;;;;;23.56;38.94;101328.44;6304825;22;45522;-79
2022/05/10 00:20:41;;;;;;;;;18.50;16.00;;;;;23.55;39.40;101316.06;6305066;22;45448;-79
2022/05/10 00:23:06;;;;;;;;;19.25;15.00;;;;;23.50;39.48;101311.25;6306853;22;45653;-79
2022/05/10 00:25:32;;;;;;;;;17.50;16.75;;;;;23.50;39.91;101313.91;6302554;22;45771;-79
2022/05/10 00:34:04;;;;;;;;;14.25;14.25;;;;;23.47;39.75;101310.75;6302451;22;45594;-78
2022/05/10 00:36:31;;;;;;;;;18.50;18.50;;;;;23.38;39.85;101297.38;6302495;22;45488;-77
2022/05/10 00:38:56;;;;;;;;;17.00;14.50;;;;;23.42;39.72;101305.91;6304068;22;46501;-77
2022/05/10 00:41:36;;;;;;;;;16.50;16.00;;;;;23.39;40.08;101304.41;6304274;22;45489;-78
2022/05/10 00:44:12;;;;;;;;;17.75;17.00;;;;;23.39;39.77;101299.06;6304846;22;45583;-79
2022/05/10 00:46:46;;;;;;;;;17.50;17.25;;;;;23.32;40.02;101295.41;6307539;22;46568;-78
2022/05/10 00:49:31;;;;;;;;;18.25;17.75;;;;;23.32;39.92;101286.59;6310033;22;46197;-79
2022/05/10 00:52:08;;;;;;;;;16.25;16.25;;;;;23.32;39.49;101290.06;6311556;22;45624;-78
2022/05/10 00:55:11;;;;;;;;;18.00;17.75;;;;;23.27;39.70;101295.09;6311743;22;45540;-79
2022/05/10 00:57:40;;;;;;;;;18.25;18.25;;;;;23.21;39.74;101281.63;6155609;23;46509;-77
2022/05/10 01:00:11;;;;;;;;;18.25;17.00;;;;;23.15;39.75;101283.16;6156020;23;46504;-78
2022/05/10 01:03:00;;;;;;;;;17.75;17.75;;;;;23.08;39.65;101276.81;6155690;23;45594;-77
2022/05/10 01:05:59;;;;;;;;;17.00;16.00;;;;;23.06;40.04;101284.16;6148862;23;45804;-77
2022/05/10 01:08:38;;;;;;;;;17.50;17.25;;;;;22.99;40.44;101277.88;6148431;23;45699;-78
2022/05/10 01:11:13;;;;;;;;;17.75;17.00;;;;;22.95;40.74;101279.19;6123764;23;47475;-77
2022/05/10 01:17:00;;;;;;;;;18.00;16.25;;;;;22.94;40.19;101281.03;6154449;23;45444;-77
2022/05/10 01:19:26;;;;;;;;;15.50;14.25;;;;;22.89;40.20;101266.53;6156331;23;45417;-78
2022/05/10 01:22:29;;;;;;;;;16.75;16.50;;;;;22.93;40.68;101270.53;6156136;23;45462;-78
2022/05/10 01:25:14;;;;;;;;;16.25;14.75;;;;;22.90;40.42;101263.69;6156597;23;45466;-77
2022/05/10 01:28:03;;;;;;;;;15.50;15.50;;;;;22.86;40.43;101265.06;6156467;23;45568;-79
2022/05/10 01:33:56;;;;;;;;;13.75;13.75;;;;;22.83;40.11;101264.56;6220995;22;45685;-79
2022/05/10 01:36:45;;;;;;;;;16.25;16.25;;;;;22.80;40.69;101260.38;6312640;22;45704;-79
2022/05/10 01:39:33;;;;;;;;;15.50;14.25;;;;;22.79;40.37;101256.03;6312737;22;45687;-79
2022/05/10 01:42:06;;;;;;;;;16.00;15.50;;;;;22.77;40.21;101259.91;6283150;22;46593;-80
2022/05/10 01:44:34;;;;;;;;;17.50;16.50;;;;;22.75;40.82;101251.22;6311243;22;45887;-79
2022/05/10 01:47:20;;;;;;;;;15.00;13.75;;;;;22.73;40.43;101253.22;6311498;22;45382;-78
2022/05/10 01:50:03;;;;;;;;;16.25;15.25;;;;;22.70;40.87;101249.03;6312595;22;45505;-78
2022/05/10 01:52:35;;;;;;;;;15.75;14.75;;;;;22.69;40.37;101251.88;6311047;22;45490;-79
2022/05/10 01:55:14;;;;;;;;;16.50;14.50;;;;;22.67;40.68;101246.72;6311029;22;45845;-79
2022/05/10 01:57:39;;;;;;;;;14.75;14.75;;;;;22.67;40.62;101248.56;6310413;22;45492;-78
2022/05/10 02:00:12;;;;;;;;;14.50;14.00;;;;;22.59;40.48;101238.72;6312088;22;45798;-78
2022/05/10 02:02:44;;;;;;;;;17.75;15.50;;;;;22.65;40.60;101242.53;6311695;22;45554;-78
2022/05/10 02:05:16;;;;;;;;;16.25;15.00;;;;;22.58;40.72;101232.53;6310831;22;46321;-77
2022/05/10 02:07:45;;;;;;;;;17.50;15.75;;;;;22.64;41.16;101235.53;6310778;22;45534;-78
2022/05/10 02:10:30;;;;;;;;;14.50;13.75;;;;;22.61;40.59;101236.72;6280829;22;45828;-78
2022/05/10 02:13:05;;;;;;;;;16.75;15.00;;;;;22.62;41.15;101240.22;6303740;22;46610;-78
2022/05/10 02:16:06;;;;;;;;;17.75;16.00;;;;;22.56;41.01;101231.88;6303876;22;46166;-78
2022/05/10 02:18:49;;;;;;;;;15.25;14.75;;;;;22.57;41.10;101224.69;6301904;22;45582;-77
2022/05/10 02:21:20;;;;;;;;;15.00;15.00;;;;;22.56;40.73;101226.53;6303704;22;45913;-78
2022/05/10 02:23:56;;;;;;;;;14.50;14.25;;;;;22.53;40.89;101221.53;6303486;22;45746;-78
2022/05/10 02:26:28;;;;;;;;;14.75;14.00;;;;;22.53;40.69;101220.72;6303833;22;45880;-78
2022/05/10 02:34:51;;;;;;;;;15.75;15.25;;;;;22.52;40.95;101224.38;6303042;22;45380;-78
2022/05/10 02:37:16;;;;;;;;;16.50;15.25;;;;;22.46;41.25;101217.88;6303307;22;45908;-77
2022/05/10 02:39:42;;;;;;;;;16.25;15.00;;;;;22.48;40.98;101220.38;6303094;22;45596;-77
2022/05/10 02:42:11;;;;;;;;;14.25;13.75;;;;;22.48;41.71;101215.03;6303440;22;45719;-78
2022/05/10 02:48:02;;;;;;;;;14.25;13.00;;;;;22.47;41.52;101211.53;6297131;22;45938;-78
2022/05/10 02:50:34;;;;;;;;;12.75;12.25;;;;;22.41;41.18;101206.03;6303407;22;45679;-78
2022/05/10 02:52:59;;;;;;;;;15.00;15.00;;;;;22.44;41.50;101214.56;6303767;22;45680;-78
2022/05/10 02:55:36;;;;;;;;;19.00;15.50;;;;;22.43;41.19;101209.38;6303465;22;46315;-78
2022/05/10 02:58:16;;;;;;;;;18.00;16.75;;;;;22.42;41.65;101213.91;6303217;22;45809;-78
2022/05/10 03:04:06;;;;;;;;;16.75;15.00;;;;;22.36;41.55;101197.72;6303187;22;45405;-79
2022/05/10 03:06:32;;;;;;;;;17.00;16.75;;;;;22.36;41.90;101201.22;6303302;22;45624;-79
2022/05/10 03:08:58;;;;;;;;;16.75;14.75;;;;;22.32;41.95;101201.75;6303297;22;46601;-77
2022/05/10 03:11:24;;;;;;;;;15.75;15.00;;;;;22.33;41.64;101198.06;6303269;22;45680;-77
2022/05/10 03:13:50;;;;;;;;;15.25;14.25;;;;;22.27;41.63;101183.56;6303426;22;45627;-77
2022/05/10 03:19:39;;;;;;;;;15.25;14.00;;;;;22.27;41.60;101196.06;6302857;22;45576;-79
2022/05/10 03:22:05;;;;;;;;;13.75;13.75;;;;;22.24;42.16;101185.75;6302910;22;45685;-79
2022/05/10 03:24:31;;;;;;;;;15.50;15.00;;;;;22.23;42.06;101189.41;6303525;22;45450;-80
2022/05/10 03:26:59;;;;;;;;;15.25;14.00;;;;;22.14;42.15;101172.56;6303087;22;46241;-79
2022/05/10 03:29:25;;;;;;;;;14.75;14.00;;;;;22.16;41.92;101182.09;6302987;22;45829;-79
2022/05/10 03:35:15;;;;;;;;;15.50;15.00;;;;;22.09;41.69;101172.25;6302875;22;45595;-78
2022/05/10 03:37:41;;;;;;;;;17.25;16.00;;;;;22.06;42.00;101172.59;6302761;22;46828;-78
2022/05/10 03:40:07;;;;;;;;;13.75;13.75;;;;;22.06;41.86;101178.78;6302788;22;46313;-79
2022/05/10 03:42:33;;;;;;;;;14.00;13.50;;;;;22.02;42.49;101169.44;6275100;22;45727;-78
2022/05/10 03:44:58;;;;;;;;;15.50;15.50;;;;;21.99;42.23;101167.09;6303042;22;45628;-79
2022/05/10 03:47:26;;;;;;;;;17.75;16.00;;;;;21.92;42.10;101163.41;6268984;22;48155;-79
2022/05/10 03:49:53;;;;;;;;;14.00;13.00;;;;;21.93;42.60;101165.06;6271706;22;45963;-79
2022/05/10 03:52:19;;;;;;;;;14.00;14.00;;;;;21.91;42.52;101169.75;6271521;22;45492;-77
2022/05/10 03:54:45;;;;;;;;;16.75;16.50;;;;;21.89;42.08;101166.41;6271672;22;45532;-77
2022/05/10 03:57:10;;;;;;;;;16.25;15.50;;;;;21.82;42.80;101157.41;6271373;22;45534;-76
2022/05/10 03:59:41;;;;;;;;;15.25;15.00;;;;;21.81;42.30;101157.59;6271438;22;46418;-77
2022/05/10 04:05:28;;;;;;;;;15.25;15.00;;;;;21.77;42.22;101163.25;6271637;22;45517;-77
2022/05/10 04:07:54;;;;;;;;;15.25;15.25;;;;;21.75;42.62;101159.09;6271409;22;46375;-79
2022/05/10 04:10:22;;;;;;;;;15.75;15.75;;;;;21.75;42.39;101167.91;6271636;22;46254;-80
2022/05/10 04:12:47;;;;;;;;;14.50;14.50;;;;;21.73;42.55;101161.94;6270060;22;46042;-77
2022/05/10 04:15:15;;;;;;;;;16.50;16.25;;;;;21.71;42.32;101158.59;6273162;22;45705;-79
2022/05/10 04:17:44;;;;;;;;;17.00;15.50;;;;;21.71;42.72;101169.25;6272596;22;45540;-77
2022/05/10 04:20:12;;;;;;;;;16.00;16.00;;;;;21.69;42.98;101159.78;6272635;22;45880;-77
2022/05/10 04:22:38;;;;;;;;;17.25;16.75;;;;;21.66;42.99;101160.94;6272484;22;45664;-79
2022/05/10 04:25:04;;;;;;;;;16.75;15.75;;;;;21.64;43.14;101164.78;6272821;22;45383;-78
2022/05/10 04:27:30;;;;;;;;;16.25;16.00;;;;;21.61;43.22;101157.94;6272557;22;46509;-80
2022/05/10 04:29:55;;;;;;;;;18.75;16.25;;;;;21.61;42.82;101159.75;6272795;22;45412;-81
2022/05/10 04:35:43;;;;;;;;;17.75;16.25;;;;;21.63;42.77;101160.44;6272520;22;45464;-80
2022/05/10 04:38:08;;;;;;;;;17.25;16.25;;;;;21.60;42.95;101156.25;6272101;22;45779;-77
2022/05/10 04:43:18;;;;;;;;;16.25;15.75;;;;;21.57;42.73;101153.09;6272134;22;45687;-79
2022/05/10 04:45:44;;;;;;;;;15.50;15.50;;;;;21.59;42.96;101167.91;6272934;22;45414;-77
2022/05/10 04:48:10;;;;;;;;;15.75;15.75;;;;;21.59;42.80;101164.44;6291709;22;46745;-77
2022/05/10 04:50:35;;;;;;;;;15.00;15.00;;;;;21.56;43.28;101167.44;6303819;22;45573;-77
2022/05/10 04:53:00;;;;;;;;;15.50;15.00;;;;;21.56;42.80;101160.25;6303670;22;46095;-77
2022/05/10 04:55:26;;;;;;;;;16.25;14.00;;;;;21.51;42.80;101156.44;6275974;22;45608;-77
2022/05/10 04:57:52;;;;;;;;;14.25;14.25;;;;;21.56;43.12;101164.75;6303631;22;45607;-78
2022/05/10 05:00:18;;;;;;;;;14.25;14.25;;;;;21.55;43.13;101169.25;6303688;22;45554;-77
2022/05/10 05:06:04;;;;;;;;;19.50;18.00;;;;;21.51;42.95;101162.59;6303531;22;45385;-79
2022/05/10 05:08:30;;;;;;;;;16.25;15.50;;;;;21.53;43.33;101175.78;6303834;22;46356;-77
2022/05/10 05:10:57;;;;;;;;;14.50;13.25;;;;;21.50;43.35;101165.44;6303586;22;45829;-77
2022/05/10 05:13:24;;;;;;;;;17.00;16.75;;;;;21.47;43.01;101152.44;6303989;22;45585;-79
2022/05/10 05:15:50;;;;;;;;;16.00;15.00;;;;;21.41;43.50;101153.94;6303904;22;45562;-79
2022/05/10 05:18:15;;;;;;;;;18.50;17.00;;;;;21.44;43.63;101166.09;6303543;22;46428;-76
2022/05/10 05:20:42;;;;;;;;;15.75;15.75;;;;;21.47;43.00;101171.94;6303567;22;45509;-76
2022/05/10 05:23:08;;;;;;;;;17.75;16.75;;;;;21.48;43.63;101170.13;6303099;22;45364;-77
2022/05/10 05:25:39;;;;;;;;;14.75;14.75;;;;;21.48;43.75;101175.44;6303713;22;45438;-76
2022/05/10 05:28:06;;;;;;;;;17.75;16.00;;;;;21.48;43.15;101173.63;6303660;22;45707;-76
2022/05/10 05:30:32;;;;;;;;;15.75;15.75;;;;;21.44;43.38;101174.91;6303091;22;47586;-77
2022/05/10 05:36:19;;;;;;;;;17.00;16.25;;;;;21.45;43.75;101173.94;6303668;22;45588;-78
2022/05/10 05:38:45;;;;;;;;;17.00;16.00;;;;;21.41;43.70;101161.94;6303307;22;45521;-78
2022/05/10 05:41:10;;;;;;;;;16.25;15.00;;;;;21.46;43.57;101180.94;6303154;22;45949;-79
2022/05/10 05:43:38;;;;;;;;;16.50;15.00;;;;;21.44;43.96;101174.91;6303246;22;45545;-78
2022/05/10 05:46:05;;;;;;;;;16.50;16.00;;;;;21.36;43.33;101156.28;6275096;22;45750;-78
2022/05/10 05:48:30;;;;;;;;;17.00;16.00;;;;;21.38;43.66;101172.91;6302572;22;45467;-78
2022/05/10 05:50:55;;;;;;;;;18.25;18.00;;;;;21.45;43.81;101173.94;6275725;22;45620;-79
2022/05/10 05:53:21;;;;;;;;;18.25;17.00;;;;;21.42;43.78;101171.59;6303593;22;45969;-79
2022/05/10 05:55:48;;;;;;;;;17.75;17.00;;;;;21.44;43.99;101166.91;6303893;22;45474;-78
2022/05/10 05:58:14;;;;;;;;;16.50;15.25;;;;;21.48;43.76;101186.09;6303437;22;46504;-78
2022/05/10 06:00:40;;;;;;;;;18.50;17.25;;;;;21.43;43.68;101175.91;6303305;22;46137;-78
2022/05/10 06:06:28;;;;;;;;;18.50;17.75;;;;;21.49;43.83;101177.09;6303236;22;45591;-78
2022/05/10 06:08:53;;;;;;;;;36.25;32.25;;;;;21.53;43.70;101186.44;6303379;22;45586;-77
2022/05/10 06:11:19;;;;;;;;;20.25;17.00;;;;;21.49;44.14;101169.91;6274665;22;47960;-77
2022/05/10 06:13:49;;;;;;;;;19.75;18.25;;;;;21.51;43.60;101173.28;6303508;22;46116;-79
2022/05/10 06:16:15;;;;;;;;;20.25;19.25;;;;;21.51;43.78;101173.28;6303621;22;45573;-78
2022/05/10 06:22:02;;;;;;;;;38.25;34.00;;;;;21.59;43.93;101178.59;6304616;22;45596;-78
2022/05/10 06:24:27;;;;;;;;;25.25;21.75;;;;;21.62;43.86;101178.28;6303234;22;45428;-80
2022/05/10 06:26:53;;;;;;;;;20.75;16.50;;;;;21.66;44.12;101179.59;6303639;22;45556;-80
2022/05/10 06:29:19;;;;;;;;;21.25;18.25;;;;;21.65;44.39;101182.44;6274906;22;47287;-80
2022/05/10 06:31:47;;;;;;;;;19.00;18.50;;;;;21.71;44.02;101184.44;6303230;22;46556;-79
2022/05/10 06:34:14;;;;;;;;;20.00;18.75;;;;;21.73;44.37;101172.59;6302754;22;45643;-78
2022/05/10 06:36:41;;;;;;;;;17.75;16.50;;;;;21.75;44.15;101172.44;6303576;22;45545;-80
2022/05/10 06:39:07;;;;;;;;;19.50;18.25;;;;;21.73;44.31;101169.94;6303559;22;46701;-80
2022/05/10 06:41:34;;;;;;;;;18.25;18.25;;;;;21.74;43.72;101162.78;6303138;22;46231;-80
2022/05/10 06:44:00;;;;;;;;;19.00;18.00;;;;;21.82;43.70;101165.41;6302996;22;45497;-82
2022/05/10 06:46:27;;;;;;;;;17.00;16.50;;;;;21.88;43.78;101171.91;6303223;22;45634;-85
2022/05/10 06:52:28;;;;;;;;;20.75;19.00;;;;;21.92;44.12;101168.75;6304823;22;45486;-81
2022/05/10 06:54:56;;;;;;;;;18.25;17.75;;;;;21.96;44.16;101182.63;6303401;22;45693;-80
2022/05/10 06:57:21;;;;;;;;;19.00;18.00;;;;;21.99;43.92;101171.59;6303178;22;45489;-80
2022/05/10 06:59:46;;;;;;;;;19.50;17.75;;;;;22.03;44.19;101178.25;6302854;22;45412;-82
2022/05/10 07:02:12;;;;;;;;;19.50;17.75;;;;;22.07;44.21;101179.63;6302679;22;45466;-78
2022/05/10 07:04:37;;;;;;;;;17.75;17.50;;;;;22.07;44.18;101167.09;6302960;22;45635;-82
2022/05/10 07:07:03;;;;;;;;;19.75;17.25;;;;;22.04;43.93;101159.41;6303904;22;45688;-82
2022/05/10 07:09:28;;;;;;;;;17.75;16.50;;;;;22.08;43.71;101168.75;6303069;22;46057;-78
2022/05/10 07:11:54;;;;;;;;;19.75;18.25;;;;;22.13;43.96;101165.59;6303198;22;45755;-80
2022/05/10 07:14:20;;;;;;;;;20.00;18.50;;;;;22.20;44.04;101169.22;6303431;22;45549;-83
2022/05/10 07:16:46;;;;;;;;;13.50;13.50;;;;;22.17;43.81;101150.91;6304387;22;45470;-79
2022/05/10 07:22:33;;;;;;;;;19.50;17.75;;;;;22.29;43.46;101154.88;6304522;22;45684;-80
2022/05/10 07:24:58;;;;;;;;;18.75;16.25;;;;;22.33;43.47;101168.69;6311491;22;45325;-82
2022/05/10 07:27:24;;;;;;;;;16.00;15.00;;;;;22.38;43.26;101171.69;6314860;22;45457;-82
2022/05/10 07:29:49;;;;;;;;;16.50;16.00;;;;;22.43;43.43;101161.31;6315067;22;45572;-84
2022/05/10 07:32:14;;;;;;;;;15.50;14.50;;;;;22.41;43.92;101158.81;6286662;22;48252;-81
2022/05/10 07:34:41;;;;;;;;;15.50;13.75;;;;;22.46;43.66;101163.63;6315355;22;45230;-76
2022/05/10 07:37:07;;;;;;;;;16.75;15.75;;;;;22.48;43.58;101158.97;6308320;22;45577;-75
2022/05/10 07:39:32;;;;;;;;;14.75;14.50;;;;;22.53;43.35;101164.63;6304525;22;46857;-76
2022/05/10 07:41:59;;;;;;;;;14.00;13.25;;;;;22.51;43.39;101154.09;6304335;22;45602;-76
2022/05/10 07:44:25;;;;;;;;;17.25;15.75;;;;;22.59;43.13;101163.94;6306054;22;45527;-79
2022/05/10 07:46:50;;;;;;;;;14.25;13.75;;;;;22.52;43.77;101145.09;6310014;22;45579;-79
2022/05/10 07:52:40;;;;;;;;;15.50;14.00;;;;;22.63;43.80;101161.72;6312859;22;46086;-83
2022/05/10 07:55:06;;;;;;;;;14.00;13.00;;;;;22.62;43.59;101162.75;6309933;22;45560;-86
2022/05/10 07:57:31;;;;;;;;;16.00;15.50;;;;;22.65;42.95;101159.72;6282492;22;45475;-83
2022/05/10 07:59:57;;;;;;;;;16.00;14.25;;;;;22.69;43.04;101156.53;6283227;22;47719;-83
2022/05/10 08:02:22;;;;;;;;;15.75;14.25;;;;;22.63;43.07;101149.22;6311579;22;45997;-83
2022/05/10 08:08:14;;;;;;;;;18.50;16.00;;;;;22.80;43.74;101163.34;6304866;22;45514;-80
2022/05/10 08:10:42;;;;;;;;;15.75;13.50;;;;;22.86;42.99;101166.16;6305112;22;46850;-86
2022/05/10 08:13:13;;;;;;;;;14.00;13.25;;;;;22.86;42.97;101163.50;6304883;22;45548;-79
2022/05/10 08:15:39;;;;;;;;;15.25;14.75;;;;;22.95;43.25;101172.28;6305090;22;45495;-79
2022/05/10 08:18:06;;;;;;;;;14.50;13.25;;;;;22.95;42.79;101167.78;6305158;22;45712;-78
2022/05/10 08:20:32;;;;;;;;;14.00;13.50;;;;;22.99;42.51;101177.13;6304390;22;46536;-84
2022/05/10 08:22:57;;;;;;;;;13.00;12.75;;;;;22.99;42.75;101170.94;6275590;22;48332;-84
2022/05/10 08:25:23;;;;;;;;;14.75;12.75;;;;;22.97;43.01;101164.94;6303619;22;45549;-78
2022/05/10 08:27:48;;;;;;;;;14.00;12.50;;;;;23.07;42.60;101180.75;6303712;22;45650;-77
2022/05/10 08:30:15;;;;;;;;;12.75;12.75;;;;;23.04;42.80;101162.41;6303427;22;45500;-78
2022/05/10 08:32:41;;;;;;;;;15.50;13.75;;;;;23.07;42.93;101164.72;6303207;22;46251;-79
2022/05/10 08:38:30;;;;;;;;;14.50;13.50;;;;;23.19;42.46;101180.19;6303546;22;45739;-79
2022/05/10 08:41:18;;;;;;;;;14.25;13.25;;;;;23.22;42.57;101168.28;6274661;22;48425;-78
2022/05/10 08:43:54;;;;;;;;;11.25;10.75;;;;;23.24;42.20;101171.63;6303148;22;45861;-78
2022/05/10 08:46:35;;;;;;;;;15.00;13.25;;;;;23.29;42.32;101159.38;6302160;22;45623;-79
2022/05/10 08:49:06;;;;;;;;;13.00;12.75;;;;;23.34;41.98;101159.69;6302562;22;45779;-78
2022/05/10 08:51:32;;;;;;;;;15.25;13.75;;;;;23.39;41.12;101162.66;6303138;22;45646;-77
2022/05/10 08:53:58;;;;;;;;;12.00;11.00;;;;;23.46;41.08;101159.28;6303479;22;46163;-77
2022/05/10 08:56:30;;;;;;;;;14.00;13.00;;;;;23.45;41.31;101145.06;6303267;22;45493;-77
2022/05/10 08:59:00;;;;;;;;;11.50;10.00;;;;;23.61;41.11;101160.16;6302917;22;45521;-77
2022/05/10 09:01:34;;;;;;;;;14.00;13.25;;;;;23.67;41.02;101162.97;6303347;22;46467;-78
2022/05/10 09:04:28;;;;;;;;;15.25;14.25;;;;;23.74;40.67;101166.59;6303404;22;46171;-78
2022/05/10 09:07:03;;;;;;;;;12.00;11.50;;;;;23.84;40.66;101166.31;6303645;22;45673;-80
2022/05/10 09:10:02;;;;;;;;;15.00;12.25;;;;;23.88;40.39;101161.44;6303476;22;45635;-77
2022/05/10 09:12:29;;;;;;;;;12.00;12.00;;;;;23.98;40.51;101167.34;6275100;22;46460;-78
2022/05/10 09:15:01;;;;;;;;;13.50;13.50;;;;;24.08;39.81;101165.22;6303310;22;45773;-77
2022/05/10 09:17:36;;;;;;;;;10.75;10.75;;;;;24.12;39.34;101156.69;6303262;22;45555;-77
2022/05/10 09:20:04;;;;;;;;;13.00;12.50;;;;;24.24;39.18;101167.78;6303373;22;45620;-77
2022/05/10 09:22:32;;;;;;;;;14.00;13.75;;;;;24.33;38.84;101166.69;6275021;22;46436;-77
2022/05/10 09:24:58;;;;;;;;;10.75;10.75;;;;;24.37;38.90;101149.22;6302974;22;45597;-79
2022/05/10 09:27:31;;;;;;;;;12.25;12.25;;;;;24.49;38.72;101144.22;6303491;22;45572;-79
2022/05/10 09:29:57;;;;;;;;;12.25;12.00;;;;;24.62;38.63;101163.97;6275075;22;45771;-80
2022/05/10 09:35:19;;;;;;;;;13.25;13.25;;;;;24.78;38.41;101143.34;6302716;22;45674;-78
2022/05/10 09:37:52;;;;;;;;;9.75;9.50;;;;;24.81;38.02;101138.44;6303189;22;45682;-78
2022/05/10 09:40:17;;;;;;;;;14.75;13.50;;;;;24.89;37.96;101145.56;6302771;22;45595;-78
2022/05/10 09:42:46;;;;;;;;;12.50;11.25;;;;;24.87;38.02;101126.97;6302907;22;45540;-78
2022/05/10 09:45:26;;;;;;;;;13.50;12.00;;;;;24.91;37.89;101144.34;6303234;22;46324;-78
2022/05/10 09:48:07;;;;;;;;;10.50;10.50;;;;;24.94;38.09;101149.31;6302681;22;45492;-77
2022/05/10 09:50:45;;;;;;;;;12.00;11.00;;;;;24.95;37.88;101140.28;6303061;22;45735;-77
2022/05/10 09:53:18;;;;;;;;;10.00;9.50;;;;;25.00;37.08;101142.38;6302897;22;46840;-77
2022/05/10 09:56:03;;;;;;;;;12.25;11.50;;;;;25.03;36.86;101147.38;6303052;22;45542;-77
2022/05/10 09:58:30;;;;;;;;;12.00;11.00;;;;;25.05;37.27;101146.16;6302997;22;45490;-77
2022/05/10 10:00:59;;;;;;;;;12.00;11.25;;;;;25.05;37.25;101146.16;6302960;22;45500;-77
2022/05/10 10:06:25;;;;;;;;;12.50;12.00;;;;;25.12;37.03;101131.97;6302581;22;45886;-77
2022/05/10 10:08:53;;;;;;;;;13.00;12.50;;;;;25.13;36.82;101121.06;6302746;22;45560;-78
2022/05/10 10:11:21;;;;;;;;;13.00;11.00;;;;;25.22;36.72;101127.13;6303251;22;45566;-78
2022/05/10 10:13:50;;;;;;;;;11.00;10.25;;;;;25.24;36.79;101100.97;6302869;22;46708;-79
2022/05/10 10:16:24;;;;;;;;;11.00;11.00;;;;;25.26;36.34;101120.38;6274603;22;47445;-79
2022/05/10 10:22:46;;;;;;;;;9.75;9.75;;;;;25.23;36.27;101126.13;6301907;22;45528;-78
2022/05/10 10:25:24;;;;;;;;;12.75;12.25;;;;;25.23;35.95;101126.94;6302559;22;46920;-79
2022/05/10 10:28:05;;;;;;;;;10.25;10.25;;;;;25.24;35.96;101119.72;6304813;22;46507;-78
2022/05/10 10:30:44;;;;;;;;;9.75;9.75;;;;;25.20;36.11;101118.47;6304320;22;45623;-82
2022/05/10 10:33:22;;;;;;;;;9.75;9.75;;;;;25.26;35.59;101125.75;6303727;22;45695;-81
2022/05/10 10:39:12;;;;;;;;;9.50;9.25;;;;;25.27;35.61;101130.91;6306016;22;45514;-79
2022/05/10 10:41:48;;;;;;;;;11.50;11.25;;;;;25.24;35.89;101127.78;6305982;22;45360;-79
2022/05/10 10:44:21;;;;;;;;;9.75;9.25;;;;;25.27;35.46;101136.25;6311285;22;45519;-85
2022/05/10 10:47:05;;;;;;;;;9.00;9.00;;;;;25.29;35.08;101120.81;6279067;22;46451;-84
2022/05/10 10:49:41;;;;;;;;;10.25;9.75;;;;;25.29;35.30;101130.72;6308302;22;45447;-87
2022/05/10 10:52:07;;;;;;;;;9.50;8.75;;;;;25.28;35.39;101129.06;6307602;22;45755;-83
2022/05/10 10:54:33;;;;;;;;;9.50;9.00;;;;;25.31;35.35;101126.84;6309856;22;45468;-84
2022/05/10 10:57:27;;;;;;;;;9.25;9.00;;;;;25.33;35.34;101126.63;6308206;22;46606;-80
2022/05/10 11:00:08;;;;;;;;;11.00;11.00;;;;;25.33;35.30;101116.72;6306823;22;45776;-83
2022/05/10 11:02:54;;;;;;;;;10.00;9.25;;;;;25.36;35.41;101118.19;6306583;22;45599;-79
2022/05/10 11:05:29;;;;;;;;;10.50;10.00;;;;;25.37;35.18;101120.66;6304566;22;45478;-80
2022/05/10 11:07:57;;;;;;;;;10.25;10.25;;;;;25.39;35.24;101115.94;6305462;22;45566;-79
2022/05/10 11:10:31;;;;;;;;;10.75;10.00;;;;;25.45;35.28;101092.88;6307299;22;45381;-81
2022/05/10 11:13:36;;;;;;;;;10.00;10.00;;;;;25.54;35.05;101102.44;6306978;22;45438;-77
2022/05/10 11:16:05;;;;;;;;;11.00;11.00;;;;;25.64;35.54;101088.75;6307353;22;45424;-80
2022/05/10 11:18:47;;;;;;;;;12.75;9.75;;;;;25.73;35.06;101091.06;6307182;22;45526;-77
2022/05/10 11:21:33;;;;;;;;;10.50;10.00;;;;;25.83;34.97;101074.59;6305836;22;46030;-79
2022/05/10 11:24:04;;;;;;;;;10.25;9.25;;;;;25.95;34.76;101091.00;6307308;22;45572;-77
2022/05/10 11:26:45;;;;;;;;;11.00;9.00;;;;;26.03;34.55;101083.59;6306892;22;45700;-76
2022/05/10 11:30:00;;;;;;;;;8.75;8.75;;;;;26.04;34.41;101090.63;6304969;22;45751;-79
2022/05/10 11:32:52;;;;;;;;;9.50;9.00;;;;;26.15;33.78;101102.69;6148992;22;45880;-80
2022/05/10 11:39:10;;;;;;;;;12.75;12.00;;;;;26.20;33.93;101078.72;6061930;23;45577;-76
2022/05/10 11:41:42;;;;;;;;;8.00;7.75;;;;;26.24;33.69;101070.09;6062352;23;45643;-76
2022/05/10 11:44:43;;;;;;;;;8.00;8.00;;;;;26.34;34.15;101075.13;6062919;23;46071;-77
2022/05/10 11:47:09;;;;;;;;;10.00;9.00;;;;;26.39;33.12;101075.34;6064845;23;45561;-81
2022/05/10 11:49:53;;;;;;;;;10.00;9.00;;;;;26.42;33.01;101085.69;6063475;23;45542;-77
2022/05/10 11:52:40;;;;;;;;;9.25;9.25;;;;;26.44;33.04;101080.94;6063113;23;45512;-77
2022/05/10 11:55:31;;;;;;;;;9.75;8.75;;;;;26.43;32.43;101071.22;6063506;23;45518;-79
2022/05/10 11:58:03;;;;;;;;;10.50;9.50;;;;;26.44;33.04;101062.13;6063789;23;45660;-78
2022/05/10 12:00:31;;;;;;;;;9.50;9.50;;;;;26.48;32.23;101054.50;6038539;23;45845;-77
2022/05/10 12:02:58;;;;;;;;;9.25;9.25;;;;;26.50;32.68;101047.06;6062308;23;46511;-78
2022/05/10 12:05:26;;;;;;;;;10.50;10.00;;;;;26.54;32.55;101059.06;6035889;23;46378;-77
2022/05/10 12:08:13;;;;;;;;;11.00;10.00;;;;;26.54;32.95;101051.00;6075161;22;45768;-81
2022/05/10 12:10:44;;;;;;;;;5.75;4.75;;;;;26.52;32.55;101037.75;6206744;22;45850;-76
2022/05/10 12:21:19;;;;;;;;;10.00;9.50;;;;;26.55;32.65;101048.13;6290692;22;45553;-77
2022/05/10 12:22:07;;;;;;;;;8.00;8.00;;;;;26.64;32.32;101038.00;6304908;22;45438;-83
2022/05/10 12:24:44;;;;;;;;;10.00;9.75;;;;;26.63;32.44;101026.41;6305584;22;46513;-78
2022/05/10 12:27:13;;;;;;;;;9.75;8.50;;;;;26.70;32.13;101024.56;6306214;22;45481;-78
2022/05/10 12:29:38;;;;;;;;;10.25;10.00;;;;;26.76;32.09;101033.69;6306001;22;45288;-79
2022/05/10 12:32:34;;;;;;;;;9.00;8.50;;;;;26.81;31.94;101020.44;6304979;22;45648;-82
2022/05/10 12:38:45;;;;;;;;;9.00;9.00;;;;;26.84;31.42;101006.56;6305651;22;45671;-80
2022/05/10 12:41:49;;;;;;;;;9.50;9.00;;;;;26.85;32.10;101020.84;6306099;22;45545;-77
2022/05/10 12:44:55;;;;;;;;;8.25;8.00;;;;;26.88;31.88;101012.44;6153819;22;45705;-77
2022/05/10 12:47:45;;;;;;;;;9.00;7.75;;;;;26.92;31.69;101011.81;6153443;23;45591;-77
2022/05/10 12:50:35;;;;;;;;;6.00;5.00;;;;;26.99;31.70;100995.69;6155102;23;46148;-81
2022/05/10 12:53:01;;;;;;;;;9.50;8.25;;;;;26.96;32.29;100998.75;6156134;23;45488;-77
2022/05/10 12:55:33;;;;;;;;;9.75;9.00;;;;;27.06;32.17;100999.16;6153330;23;45824;-78
2022/05/10 12:58:23;;;;;;;;;10.00;9.00;;;;;27.04;31.13;100993.19;6152571;23;46389;-78
2022/05/10 13:00:54;;;;;;;;;10.50;9.00;;;;;27.07;30.93;100998.16;6151510;23;45944;-77
2022/05/10 13:03:34;;;;;;;;;9.00;8.00;;;;;27.03;32.11;100989.66;6151126;23;45613;-79
2022/05/10 13:06:33;;;;;;;;;8.00;8.00;;;;;27.05;32.07;100989.44;6150584;23;45522;-78
2022/05/10 13:09:01;;;;;;;;;10.00;7.50;;;;;27.06;32.04;100985.72;6150490;23;45561;-83
2022/05/10 13:11:36;;;;;;;;;9.50;9.25;;;;;27.03;30.99;100981.59;6150038;23;46206;-78
2022/05/10 13:14:04;;;;;;;;;8.50;8.50;;;;;26.98;31.62;100972.50;6149455;23;45749;-78